Time,TemperatureF,DewpointF,PressureIn,WindDirection,WindDirectionDegrees,WindSpeedMPH,WindSpeedGustMPH,Humidity,HourlyPrecipIn,Conditions,Clouds,dailyrainin,SolarRadiationWatts/m^2,SoftwareType,DateUTC
2013-09-15 00:00:00,72.4,52.2,29.65,NW,318,0.0,0.0,49,0.00,,,0.00,0,Wunderground v.1.15,2013-09-15 07:00:00,
2013-09-15 00:09:00,72.3,52.1,29.64,NW,318,0.0,0.0,49,0.00,,,0.00,0,Wunderground v.1.15,2013-09-15 07:09:00,
2013-09-15 00:14:00,72.2,52.0,29.64,NW,318,0.0,0.0,49,0.00,,,0.00,0,Wunderground v.1.15,2013-09-15 07:14:00,
2013-09-15 00:19:00,71.3,51.7,29.65,NW,318,0.0,0.0,50,0.00,,,0.00,0,Wunderground v.1.15,2013-09-15 07:19:00,
2013-09-15 00:24:00,70.0,51.6,29.65,NW,318,0.0,0.0,52,0.00,,,0.00,0,Wunderground v.1.15,2013-09-15 07:24:00,
2013-09-15 00:29:00,70.5,52.0,29.64,NW,318,0.0,0.0,52,0.00,,,0.00,0,Wunderground v.1.15,2013-09-15 07:29:00,
2013-09-15 00:39:00,71.3,52.2,29.64,NW,318,0.0,0.0,51,0.00,,,0.00,0,Wunderground v.1.15,2013-09-15 07:39:00,
2013-09-15 00:44:00,71.4,51.8,29.64,NW,318,0.0,0.0,50,0.00,,,0.00,0,Wunderground v.1.15,2013-09-15 07:44:00,
2013-09-15 00:49:00,70.9,51.9,29.64,NW,318,0.0,0.0,51,0.00,,,0.00,0,Wunderground v.1.15,2013-09-15 07:49:00,
2013-09-15 00:54:00,70.4,51.9,29.64,NW,318,0.0,0.0,52,0.00,,,0.00,0,Wunderground v.1.15,2013-09-15 07:54:00,
2013-09-15 01:00:00,70.3,51.8,29.64,NW,318,0.0,0.0,52,0.00,,,0.00,0,Wunderground v.1.15,2013-09-15 08:00:00,
2013-09-15 01:05:00,69.7,51.3,29.64,NW,318,0.0,0.0,52,0.00,,,0.00,0,Wunderground v.1.15,2013-09-15 08:05:00,
2013-09-15 01:10:00,68.9,51.1,29.64,NW,318,0.0,0.0,53,0.00,,,0.00,0,Wunderground v.1.15,2013-09-15 08:10:00,
2013-09-15 01:15:00,68.6,51.3,29.64,NW,318,0.0,0.0,54,0.00,,,0.00,0,Wunderground v.1.15,2013-09-15 08:15:00,
2013-09-15 01:20:00,68.6,51.3,29.64,NW,318,0.0,0.0,54,0.00,,,0.00,0,Wunderground v.1.15,2013-09-15 08:20:00,
2013-09-15 01:25:00,69.1,51.2,29.64,NW,318,0.0,0.0,53,0.00,,,0.00,0,Wunderground v.1.15,2013-09-15 08:25:00,
2013-09-15 01:30:00,69.6,51.7,29.64,NW,318,0.0,0.0,53,0.00,,,0.00,0,Wunderground v.1.15,2013-09-15 08:30:00,
2013-09-15 01:35:00,69.9,51.5,29.64,NW,318,0.0,0.0,52,0.00,,,0.00,0,Wunderground v.1.15,2013-09-15 08:35:00,
2013-09-15 01:45:00,69.7,51.3,29.64,NW,318,0.0,0.0,52,0.00,,,0.00,0,Wunderground v.1.15,2013-09-15 08:45:00,
2013-09-15 01:50:00,69.0,51.2,29.64,NW,318,0.0,0.0,53,0.00,,,0.00,0,Wunderground v.1.15,2013-09-15 08:50:00,
2013-09-15 01:55:00,68.9,51.1,29.64,NW,318,0.0,0.0,53,0.00,,,0.00,0,Wunderground v.1.15,2013-09-15 08:55:00,
2013-09-15 02:00:00,69.4,51.5,29.64,NW,318,0.0,0.0,53,0.00,,,0.00,0,Wunderground v.1.15,2013-09-15 09:00:00,
2013-09-15 02:10:00,67.6,50.9,29.64,NW,318,0.0,0.0,55,0.00,,,0.00,0,Wunderground v.1.15,2013-09-15 09:10:00,
2013-09-15 02:15:00,67.2,51.9,29.64,NW,318,0.0,0.0,58,0.00,,,0.00,0,Wunderground v.1.15,2013-09-15 09:15:00,
2013-09-15 02:20:00,67.2,51.9,29.64,NW,318,0.0,0.0,58,0.00,,,0.00,0,Wunderground v.1.15,2013-09-15 09:20:00,
2013-09-15 02:25:00,66.9,52.1,29.64,NW,318,0.0,0.0,59,0.00,,,0.00,0,Wunderground v.1.15,2013-09-15 09:25:00,
2013-09-15 02:30:00,66.6,51.8,29.64,NW,318,0.0,0.0,59,0.00,,,0.00,0,Wunderground v.1.15,2013-09-15 09:30:00,
2013-09-15 02:35:00,66.4,52.1,29.63,NW,318,0.0,0.0,60,0.00,,,0.00,0,Wunderground v.1.15,2013-09-15 09:35:00,
2013-09-15 02:40:00,66.3,52.0,29.63,NW,318,0.0,0.0,60,0.00,,,0.00,0,Wunderground v.1.15,2013-09-15 09:40:00,
2013-09-15 02:45:00,66.1,51.8,29.63,NW,318,0.0,0.0,60,0.00,,,0.00,0,Wunderground v.1.15,2013-09-15 09:45:00,
2013-09-15 02:50:00,65.3,51.1,29.63,NW,318,0.0,0.0,60,0.00,,,0.00,0,Wunderground v.1.15,2013-09-15 09:50:00,
2013-09-15 02:55:00,64.5,50.7,29.63,NW,318,0.0,0.0,61,0.00,,,0.00,0,Wunderground v.1.15,2013-09-15 09:55:00,
2013-09-15 03:00:00,62.9,50.1,29.63,NW,318,0.0,0.0,63,0.00,,,0.00,0,Wunderground v.1.15,2013-09-15 10:00:00,
2013-09-15 03:10:00,61.3,49.4,29.63,NW,318,0.0,0.0,65,0.00,,,0.00,0,Wunderground v.1.15,2013-09-15 10:10:00,
2013-09-15 03:20:00,61.2,49.3,29.63,NW,318,0.0,0.0,65,0.00,,,0.00,0,Wunderground v.1.15,2013-09-15 10:20:00,
2013-09-15 03:25:00,61.4,49.1,29.63,NW,318,0.0,0.0,64,0.00,,,0.00,0,Wunderground v.1.15,2013-09-15 10:25:00,
2013-09-15 03:30:00,61.4,49.1,29.63,WNW,296,0.0,0.0,64,0.00,,,0.00,0,Wunderground v.1.15,2013-09-15 10:30:00,
2013-09-15 03:35:00,61.6,48.9,29.63,WNW,293,0.0,0.0,63,0.00,,,0.00,0,Wunderground v.1.15,2013-09-15 10:35:00,
2013-09-15 03:40:00,61.9,49.2,29.63,WNW,293,0.0,0.0,63,0.00,,,0.00,0,Wunderground v.1.15,2013-09-15 10:40:00,
2013-09-15 03:45:00,62.3,49.1,29.63,WNW,293,0.0,0.0,62,0.00,,,0.00,0,Wunderground v.1.15,2013-09-15 10:45:00,
2013-09-15 03:55:00,62.2,49.4,29.63,WNW,293,0.0,0.0,63,0.00,,,0.00,0,Wunderground v.1.15,2013-09-15 10:55:00,
2013-09-15 04:00:00,62.4,49.6,29.63,WNW,293,0.0,0.0,63,0.00,,,0.00,0,Wunderground v.1.15,2013-09-15 11:00:00,
2013-09-15 04:10:00,62.1,50.2,29.63,WNW,293,0.0,0.0,65,0.00,,,0.00,0,Wunderground v.1.15,2013-09-15 11:10:00,
2013-09-15 04:15:00,61.9,50.4,29.63,WNW,293,0.0,0.0,66,0.00,,,0.00,0,Wunderground v.1.15,2013-09-15 11:15:00,
2013-09-15 04:20:00,61.5,50.0,29.63,WNW,293,0.0,0.0,66,0.00,,,0.00,0,Wunderground v.1.15,2013-09-15 11:20:00,
2013-09-15 04:25:00,60.4,49.8,29.62,WNW,293,0.0,0.0,68,0.00,,,0.00,0,Wunderground v.1.15,2013-09-15 11:25:00,
2013-09-15 04:30:00,60.1,49.5,29.62,WNW,293,0.0,0.0,68,0.00,,,0.00,0,Wunderground v.1.15,2013-09-15 11:30:00,
2013-09-15 04:35:00,59.0,48.8,29.62,WNW,293,0.0,0.0,69,0.00,,,0.00,0,Wunderground v.1.15,2013-09-15 11:35:00,
2013-09-15 04:40:00,59.4,50.4,29.62,WNW,293,0.0,0.0,72,0.00,,,0.00,0,Wunderground v.1.15,2013-09-15 11:40:00,
2013-09-15 04:45:00,59.5,49.7,29.62,WNW,293,0.0,0.0,70,0.00,,,0.00,0,Wunderground v.1.15,2013-09-15 11:45:00,
2013-09-15 04:55:00,58.8,49.8,29.62,WNW,293,0.0,0.0,72,0.00,,,0.00,0,Wunderground v.1.15,2013-09-15 11:55:00,
2013-09-15 05:00:00,58.4,49.8,29.62,WNW,293,0.0,0.0,73,0.00,,,0.00,0,Wunderground v.1.15,2013-09-15 12:00:00,
2013-09-15 05:10:00,58.5,50.2,29.61,WNW,293,0.0,0.0,74,0.00,,,0.00,0,Wunderground v.1.15,2013-09-15 12:10:00,
2013-09-15 05:15:00,58.5,49.9,29.61,WNW,293,0.0,0.0,73,0.00,,,0.00,0,Wunderground v.1.15,2013-09-15 12:15:00,
2013-09-15 05:20:00,58.4,49.8,29.61,WNW,293,0.0,0.0,73,0.00,,,0.00,0,Wunderground v.1.15,2013-09-15 12:20:00,
2013-09-15 05:30:00,58.8,50.2,29.62,WNW,293,0.0,0.0,73,0.00,,,0.00,0,Wunderground v.1.15,2013-09-15 12:30:00,
2013-09-15 05:35:00,58.9,49.9,29.61,WNW,293,0.0,0.0,72,0.00,,,0.00,0,Wunderground v.1.15,2013-09-15 12:35:00,
2013-09-15 05:40:00,58.7,49.7,29.61,WNW,293,0.0,0.0,72,0.00,,,0.00,0,Wunderground v.1.15,2013-09-15 12:40:00,
2013-09-15 05:45:00,58.5,49.5,29.61,WNW,293,0.0,0.0,72,0.00,,,0.00,0,Wunderground v.1.15,2013-09-15 12:45:00,
2013-09-15 05:50:00,58.3,49.7,29.61,WNW,293,0.0,0.0,73,0.00,,,0.00,0,Wunderground v.1.15,2013-09-15 12:50:00,
2013-09-15 06:00:00,57.6,49.4,29.61,WNW,293,0.0,0.0,74,0.00,,,0.00,0,Wunderground v.1.15,2013-09-15 13:00:00,
2013-09-15 06:10:00,56.7,48.9,29.61,WNW,293,0.0,0.0,75,0.00,,,0.00,0,Wunderground v.1.15,2013-09-15 13:10:00,
2013-09-15 06:15:00,56.5,49.0,29.61,WNW,293,0.0,0.0,76,0.00,,,0.00,0,Wunderground v.1.15,2013-09-15 13:15:00,
2013-09-15 06:20:00,56.1,48.6,29.61,WNW,293,0.0,0.0,76,0.00,,,0.00,0,Wunderground v.1.15,2013-09-15 13:20:00,
2013-09-15 06:25:00,55.6,48.2,29.62,WNW,293,0.0,0.0,76,0.00,,,0.00,0,Wunderground v.1.15,2013-09-15 13:25:00,
2013-09-15 06:35:00,55.7,48.6,29.62,WNW,293,0.0,0.0,77,0.00,,,0.00,0,Wunderground v.1.15,2013-09-15 13:35:00,
2013-09-15 06:40:00,55.9,48.4,29.62,WNW,293,0.0,0.0,76,0.00,,,0.00,0,Wunderground v.1.15,2013-09-15 13:40:00,
2013-09-15 06:45:00,56.3,48.8,29.61,WNW,293,0.0,0.0,76,0.00,,,0.00,5,Wunderground v.1.15,2013-09-15 13:45:00,
2013-09-15 06:50:00,56.2,48.7,29.62,WNW,293,0.0,0.0,76,0.00,,,0.00,7,Wunderground v.1.15,2013-09-15 13:50:00,
2013-09-15 06:55:00,55.9,48.4,29.62,WNW,292,0.0,0.0,76,0.00,,,0.00,11,Wunderground v.1.15,2013-09-15 13:55:00,
2013-09-15 07:00:00,55.9,48.4,29.62,WNW,293,0.0,0.0,76,0.00,,,0.00,14,Wunderground v.1.15,2013-09-15 14:00:00,
2013-09-15 07:10:00,56.3,48.8,29.62,WNW,293,0.0,0.0,76,0.00,,,0.00,25,Wunderground v.1.15,2013-09-15 14:10:00,
2013-09-15 07:15:00,56.8,49.0,29.62,WNW,293,0.0,0.0,75,0.00,,,0.00,30,Wunderground v.1.15,2013-09-15 14:15:00,
2013-09-15 07:20:00,57.2,49.0,29.62,WNW,293,0.0,0.0,74,0.00,,,0.00,39,Wunderground v.1.15,2013-09-15 14:20:00,
2013-09-15 07:25:00,57.6,49.4,29.62,WNW,293,0.0,0.0,74,0.00,,,0.00,47,Wunderground v.1.15,2013-09-15 14:25:00,
2013-09-15 07:30:00,58.4,49.4,29.62,WNW,293,0.0,0.0,72,0.00,,,0.00,62,Wunderground v.1.15,2013-09-15 14:30:00,
2013-09-15 07:40:00,59.7,49.9,29.62,WNW,293,0.0,0.0,70,0.00,,,0.00,88,Wunderground v.1.15,2013-09-15 14:40:00,
2013-09-15 07:45:00,60.6,50.4,29.62,WNW,293,0.0,0.0,69,0.00,,,0.00,111,Wunderground v.1.15,2013-09-15 14:45:00,
2013-09-15 07:55:00,62.8,51.3,29.62,WSW,249,0.0,0.0,66,0.00,,,0.00,163,Wunderground v.1.15,2013-09-15 14:55:00,
2013-09-15 08:00:00,63.6,51.2,29.62,SW,214,1.0,3.0,64,0.00,,,0.00,172,Wunderground v.1.15,2013-09-15 15:00:00,
2013-09-15 08:10:00,64.0,50.7,29.62,SW,214,0.0,0.0,62,0.00,,,0.00,141,Wunderground v.1.15,2013-09-15 15:10:00,
2013-09-15 08:15:00,64.3,50.6,29.62,SSW,212,0.0,2.0,61,0.00,,,0.00,192,Wunderground v.1.15,2013-09-15 15:15:00,
2013-09-15 08:20:00,64.6,50.8,29.62,SSW,209,0.0,0.0,61,0.00,,,0.00,185,Wunderground v.1.15,2013-09-15 15:20:00,
2013-09-15 08:25:00,65.2,51.0,29.62,South,182,1.0,6.0,60,0.00,,,0.00,250,Wunderground v.1.15,2013-09-15 15:25:00,
2013-09-15 08:30:00,65.1,50.9,29.62,South,181,3.0,6.0,60,0.00,,,0.00,111,Wunderground v.1.15,2013-09-15 15:30:00,
2013-09-15 08:35:00,65.1,51.3,29.62,South,180,4.0,6.0,61,0.00,,,0.00,308,Wunderground v.1.15,2013-09-15 15:35:00,
2013-09-15 08:40:00,66.0,51.3,29.62,South,180,2.0,2.0,59,0.00,,,0.00,276,Wunderground v.1.15,2013-09-15 15:40:00,
2013-09-15 08:45:00,66.3,51.5,29.62,South,180,1.0,2.0,59,0.00,,,0.00,255,Wunderground v.1.15,2013-09-15 15:45:00,
2013-09-15 08:50:00,66.8,51.5,29.62,South,182,1.0,1.0,58,0.00,,,0.00,149,Wunderground v.1.15,2013-09-15 15:50:00,
2013-09-15 08:55:00,67.1,51.4,29.62,South,182,0.0,1.0,57,0.00,,,0.00,360,Wunderground v.1.15,2013-09-15 15:55:00,
2013-09-15 09:00:00,68.3,52.0,29.61,South,182,0.0,0.0,56,0.00,,,0.00,392,Wunderground v.1.15,2013-09-15 16:00:00,
2013-09-15 09:10:00,69.2,53.8,29.61,South,182,0.0,0.0,58,0.00,,,0.00,341,Wunderground v.1.15,2013-09-15 16:10:00,
2013-09-15 09:15:00,69.0,55.0,29.61,South,182,0.0,0.0,61,0.00,,,0.00,135,Wunderground v.1.15,2013-09-15 16:15:00,
2013-09-15 09:20:00,68.7,56.9,29.61,South,182,0.0,0.0,66,0.00,,,0.00,130,Wunderground v.1.15,2013-09-15 16:20:00,
2013-09-15 09:25:00,68.6,56.4,29.61,South,182,0.0,0.0,65,0.00,,,0.00,116,Wunderground v.1.15,2013-09-15 16:25:00,
2013-09-15 09:30:00,68.0,54.9,29.61,South,182,0.0,0.0,63,0.00,,,0.00,336,Wunderground v.1.15,2013-09-15 16:30:00,
2013-09-15 09:35:00,68.5,53.6,29.61,South,182,0.0,0.0,59,0.00,,,0.00,471,Wunderground v.1.15,2013-09-15 16:35:00,
2013-09-15 09:45:00,72.2,54.1,29.60,South,182,0.0,0.0,53,0.00,,,0.00,459,Wunderground v.1.15,2013-09-15 16:45:00,
2013-09-15 09:50:00,73.4,53.6,29.61,South,182,0.0,0.0,50,0.00,,,0.00,462,Wunderground v.1.15,2013-09-15 16:50:00,
2013-09-15 09:55:00,74.1,53.7,29.61,South,181,0.0,0.0,49,0.00,,,0.00,468,Wunderground v.1.15,2013-09-15 16:55:00,
2013-09-15 10:00:00,74.3,53.9,29.60,SSE,163,0.0,0.0,49,0.00,,,0.00,476,Wunderground v.1.15,2013-09-15 17:00:00,
2013-09-15 10:10:00,75.9,54.2,29.60,SSE,160,0.0,0.0,47,0.00,,,0.00,497,Wunderground v.1.15,2013-09-15 17:10:00,
2013-09-15 10:20:00,77.2,54.8,29.60,SE,144,0.0,0.0,46,0.00,,,0.00,519,Wunderground v.1.15,2013-09-15 17:20:00,
2013-09-15 10:25:00,78.5,54.8,29.59,SE,124,1.0,5.0,44,0.00,,,0.00,529,Wunderground v.1.15,2013-09-15 17:25:00,
2013-09-15 10:30:00,78.5,54.1,29.59,ESE,111,1.0,1.0,43,0.00,,,0.00,543,Wunderground v.1.15,2013-09-15 17:30:00,
2013-09-15 10:35:00,79.3,54.2,29.59,ESE,102,2.0,2.0,42,0.00,,,0.00,554,Wunderground v.1.15,2013-09-15 17:35:00,
2013-09-15 10:40:00,79.9,53.4,29.59,SE,136,4.0,8.0,40,0.00,,,0.00,568,Wunderground v.1.15,2013-09-15 17:40:00,
2013-09-15 10:50:00,80.6,52.6,29.58,SE,130,2.0,2.0,38,0.00,,,0.00,580,Wunderground v.1.15,2013-09-15 17:50:00,
2013-09-15 10:55:00,81.6,53.5,29.58,SE,137,1.0,2.0,38,0.00,,,0.00,594,Wunderground v.1.15,2013-09-15 17:55:00,
2013-09-15 11:00:00,81.3,54.0,29.58,SE,133,1.0,1.0,39,0.00,,,0.00,603,Wunderground v.1.15,2013-09-15 18:00:00,
2013-09-15 11:10:00,82.5,52.9,29.58,SSE,167,1.0,4.0,36,0.00,,,0.00,624,Wunderground v.1.15,2013-09-15 18:10:00,
2013-09-15 11:15:00,82.5,53.6,29.58,ESE,105,2.0,4.0,37,0.00,,,0.00,636,Wunderground v.1.15,2013-09-15 18:15:00,
2013-09-15 11:25:00,84.1,51.9,29.58,SE,142,1.0,2.0,33,0.00,,,0.00,640,Wunderground v.1.15,2013-09-15 18:25:00,
2013-09-15 11:30:00,83.8,49.9,29.57,SSE,163,1.0,4.0,31,0.00,,,0.00,652,Wunderground v.1.15,2013-09-15 18:30:00,
2013-09-15 11:35:00,84.9,50.0,29.57,South,188,2.0,4.0,30,0.00,,,0.00,657,Wunderground v.1.15,2013-09-15 18:35:00,
2013-09-15 11:40:00,85.0,50.1,29.57,South,178,2.0,2.0,30,0.00,,,0.00,663,Wunderground v.1.15,2013-09-15 18:40:00,
2013-09-15 11:45:00,85.9,49.0,29.57,South,179,1.0,2.0,28,0.00,,,0.00,677,Wunderground v.1.15,2013-09-15 18:45:00,
2013-09-15 11:55:00,87.4,47.3,29.57,SSE,148,1.0,1.0,25,0.00,,,0.00,686,Wunderground v.1.15,2013-09-15 18:55:00,
2013-09-15 12:00:00,87.9,47.7,29.56,SE,145,2.0,4.0,25,0.00,,,0.00,693,Wunderground v.1.15,2013-09-15 19:00:00,
2013-09-15 12:10:00,86.7,46.7,29.56,ESE,108,4.0,4.0,25,0.00,,,0.00,694,Wunderground v.1.15,2013-09-15 19:10:00,
2013-09-15 12:15:00,88.2,49.0,29.56,South,180,4.0,4.0,26,0.00,,,0.00,700,Wunderground v.1.15,2013-09-15 19:15:00,
2013-09-15 12:20:00,88.2,47.9,29.56,SSE,167,6.0,6.0,25,0.00,,,0.00,707,Wunderground v.1.15,2013-09-15 19:20:00,
2013-09-15 12:30:00,87.8,45.4,29.56,South,172,5.0,7.0,23,0.00,,,0.00,710,Wunderground v.1.15,2013-09-15 19:30:00,
2013-09-15 12:35:00,88.8,47.4,29.56,SE,137,5.0,7.0,24,0.00,,,0.00,719,Wunderground v.1.15,2013-09-15 19:35:00,
2013-09-15 12:40:00,88.4,45.9,29.55,SSW,198,6.0,6.0,23,0.00,,,0.00,721,Wunderground v.1.15,2013-09-15 19:40:00,
2013-09-15 12:45:00,88.9,45.1,29.55,SSE,158,6.0,8.0,22,0.00,,,0.00,728,Wunderground v.1.15,2013-09-15 19:45:00,
2013-09-15 12:50:00,89.0,46.4,29.55,South,178,4.0,4.0,23,0.00,,,0.00,729,Wunderground v.1.15,2013-09-15 19:50:00,
2013-09-15 12:55:00,90.2,46.2,29.55,SE,139,3.0,10.0,22,0.00,,,0.00,726,Wunderground v.1.15,2013-09-15 19:55:00,
2013-09-15 13:00:00,89.3,46.6,29.55,East,83,2.0,2.0,23,0.00,,,0.00,728,Wunderground v.1.15,2013-09-15 20:00:00,
2013-09-15 13:10:00,89.4,45.5,29.55,SSW,210,4.0,4.0,22,0.00,,,0.00,733,Wunderground v.1.15,2013-09-15 20:10:00,
2013-09-15 13:15:00,89.0,46.4,29.55,ESE,112,3.0,4.0,23,0.00,,,0.00,729,Wunderground v.1.15,2013-09-15 20:15:00,
2013-09-15 13:20:00,90.1,47.3,29.55,SE,140,1.0,1.0,23,0.00,,,0.00,733,Wunderground v.1.15,2013-09-15 20:20:00,
2013-09-15 13:25:00,90.5,45.2,29.54,SW,219,2.0,10.0,21,0.00,,,0.00,729,Wunderground v.1.15,2013-09-15 20:25:00,
2013-09-15 13:30:00,89.4,44.3,29.54,SW,217,5.0,5.0,21,0.00,,,0.00,726,Wunderground v.1.15,2013-09-15 20:30:00,
2013-09-15 13:35:00,90.3,46.3,29.54,ESE,107,3.0,5.0,22,0.00,,,0.00,729,Wunderground v.1.15,2013-09-15 20:35:00,
2013-09-15 13:40:00,91.1,44.4,29.53,SW,219,1.0,7.0,20,0.00,,,0.00,668,Wunderground v.1.15,2013-09-15 20:40:00,
2013-09-15 13:45:00,91.2,44.5,29.53,SE,134,2.0,7.0,20,0.00,,,0.00,722,Wunderground v.1.15,2013-09-15 20:45:00,
2013-09-15 13:50:00,91.4,41.9,29.54,South,172,3.0,4.0,18,0.00,,,0.00,738,Wunderground v.1.15,2013-09-15 20:50:00,
2013-09-15 13:55:00,91.7,42.2,29.53,South,176,1.0,4.0,18,0.00,,,0.00,728,Wunderground v.1.15,2013-09-15 20:55:00,
2013-09-15 14:00:00,92.5,41.3,29.53,SSW,200,1.0,8.0,17,0.00,,,0.00,719,Wunderground v.1.15,2013-09-15 21:00:00,
2013-09-15 14:10:00,92.0,37.7,29.52,South,177,12.0,16.0,15,0.00,,,0.00,719,Wunderground v.1.15,2013-09-15 21:10:00,
2013-09-15 14:15:00,91.6,35.7,29.53,SW,216,15.0,16.0,14,0.00,,,0.00,714,Wunderground v.1.15,2013-09-15 21:15:00,
2013-09-15 14:20:00,91.8,35.8,29.52,SSW,202,13.0,13.0,14,0.00,,,0.00,710,Wunderground v.1.15,2013-09-15 21:20:00,
2013-09-15 14:25:00,92.0,39.4,29.52,SSW,202,8.0,13.0,16,0.00,,,0.00,700,Wunderground v.1.15,2013-09-15 21:25:00,
2013-09-15 14:35:00,90.5,46.5,29.53,SW,236,9.0,10.0,22,0.00,,,0.00,687,Wunderground v.1.15,2013-09-15 21:35:00,
2013-09-15 14:40:00,90.8,46.7,29.52,WSW,242,6.0,8.0,22,0.00,,,0.00,684,Wunderground v.1.15,2013-09-15 21:40:00,
2013-09-15 14:45:00,90.6,46.5,29.52,SW,234,7.0,12.0,22,0.00,,,0.00,673,Wunderground v.1.15,2013-09-15 21:45:00,
2013-09-15 14:50:00,89.8,45.9,29.52,WSW,248,11.0,11.0,22,0.00,,,0.00,666,Wunderground v.1.15,2013-09-15 21:50:00,
2013-09-15 14:55:00,90.1,47.3,29.52,WSW,248,10.0,11.0,23,0.00,,,0.00,656,Wunderground v.1.15,2013-09-15 21:55:00,
2013-09-15 15:00:00,89.3,47.8,29.52,WNW,289,7.0,7.0,24,0.00,,,0.00,643,Wunderground v.1.15,2013-09-15 22:00:00,
2013-09-15 15:10:00,89.1,46.5,29.51,WNW,292,5.0,5.0,23,0.00,,,0.00,635,Wunderground v.1.15,2013-09-15 22:10:00,
2013-09-15 15:15:00,89.3,46.6,29.51,West,267,5.0,5.0,23,0.00,,,0.00,635,Wunderground v.1.15,2013-09-15 22:15:00,
2013-09-15 15:20:00,89.9,47.1,29.51,WNW,285,5.0,5.0,23,0.00,,,0.00,193,Wunderground v.1.15,2013-09-15 22:20:00,
2013-09-15 15:25:00,89.4,46.7,29.51,WNW,294,5.0,5.0,23,0.00,,,0.00,100,Wunderground v.1.15,2013-09-15 22:25:00,
2013-09-15 15:30:00,88.3,45.8,29.51,WSW,257,4.0,4.0,23,0.00,,,0.00,107,Wunderground v.1.15,2013-09-15 22:30:00,
2013-09-15 15:40:00,87.9,45.5,29.50,West,278,5.0,5.0,23,0.00,,,0.00,151,Wunderground v.1.15,2013-09-15 22:40:00,
2013-09-15 15:45:00,87.6,45.2,29.50,WSW,239,4.0,5.0,23,0.00,,,0.00,171,Wunderground v.1.15,2013-09-15 22:45:00,
2013-09-15 15:50:00,87.7,44.1,29.50,West,267,3.0,4.0,22,0.00,,,0.00,135,Wunderground v.1.15,2013-09-15 22:50:00,
2013-09-15 15:55:00,87.6,45.2,29.50,WSW,257,4.0,4.0,23,0.00,,,0.00,621,Wunderground v.1.15,2013-09-15 22:55:00,
2013-09-15 16:00:00,88.8,47.4,29.49,West,263,4.0,8.0,24,0.00,,,0.00,524,Wunderground v.1.15,2013-09-15 23:00:00,
2013-09-15 16:10:00,86.6,51.5,29.51,WSW,247,13.0,28.0,30,0.00,,,0.00,81,Wunderground v.1.15,2013-09-15 23:10:00,
2013-09-15 16:15:00,84.5,51.4,29.51,West,261,17.0,28.0,32,0.00,,,0.00,116,Wunderground v.1.15,2013-09-15 23:15:00,
2013-09-15 16:20:00,81.5,55.5,29.51,WSW,251,18.0,18.0,41,0.00,,,0.00,267,Wunderground v.1.15,2013-09-15 23:20:00,
2013-09-15 16:25:00,78.9,57.0,29.51,WSW,256,16.0,19.0,47,0.00,,,0.00,134,Wunderground v.1.15,2013-09-15 23:25:00,
2013-09-15 16:30:00,78.9,53.9,29.51,WSW,256,15.0,15.0,42,0.00,,,0.00,77,Wunderground v.1.15,2013-09-15 23:30:00,
2013-09-15 16:35:00,78.7,51.0,29.52,WSW,250,17.0,20.0,38,0.00,,,0.00,70,Wunderground v.1.15,2013-09-15 23:35:00,
2013-09-15 16:45:00,77.6,54.0,29.53,West,265,14.0,17.0,44,0.00,,,0.00,255,Wunderground v.1.15,2013-09-15 23:45:00,
2013-09-15 16:50:00,77.7,52.8,29.53,SW,236,11.0,23.0,42,0.00,,,0.00,239,Wunderground v.1.15,2013-09-15 23:50:00,
2013-09-15 16:55:00,78.4,52.7,29.52,SW,230,12.0,23.0,41,0.00,,,0.00,452,Wunderground v.1.15,2013-09-15 23:55:00,
2013-09-15 17:00:00,79.7,51.8,29.52,WSW,239,14.0,14.0,38,0.00,,,0.00,489,Wunderground v.1.15,2013-09-16 00:00:00,
2013-09-15 17:10:00,79.8,51.9,29.52,SW,232,15.0,15.0,38,0.00,,,0.00,390,Wunderground v.1.15,2013-09-16 00:10:00,
2013-09-15 17:20:00,79.2,52.1,29.53,WSW,239,12.0,16.0,39,0.00,,,0.00,192,Wunderground v.1.15,2013-09-16 00:20:00,
2013-09-15 17:25:00,78.3,52.0,29.54,SW,232,12.0,20.0,40,0.00,,,0.00,179,Wunderground v.1.15,2013-09-16 00:25:00,
2013-09-15 17:30:00,77.2,52.3,29.54,West,273,14.0,14.0,42,0.00,,,0.00,272,Wunderground v.1.15,2013-09-16 00:30:00,
2013-09-15 17:35:00,76.6,52.4,29.54,West,260,13.0,14.0,43,0.00,,,0.00,181,Wunderground v.1.15,2013-09-16 00:35:00,
2013-09-15 17:40:00,76.2,51.4,29.55,WSW,257,11.0,13.0,42,0.00,,,0.00,167,Wunderground v.1.15,2013-09-16 00:40:00,
2013-09-15 17:45:00,75.6,50.2,29.56,WNW,294,12.0,15.0,41,0.00,,,0.00,139,Wunderground v.1.15,2013-09-16 00:45:00,
2013-09-15 17:50:00,75.0,49.0,29.56,WSW,244,13.0,16.0,40,0.00,,,0.00,114,Wunderground v.1.15,2013-09-16 00:50:00,
2013-09-15 17:55:00,74.6,48.7,29.56,West,265,12.0,17.0,40,0.00,,,0.00,127,Wunderground v.1.15,2013-09-16 00:55:00,
2013-09-15 18:00:00,74.2,47.6,29.56,WNW,288,9.0,9.0,39,0.00,,,0.00,104,Wunderground v.1.15,2013-09-16 01:00:00,
2013-09-15 18:10:00,73.3,45.4,29.57,West,274,5.0,8.0,37,0.00,,,0.00,60,Wunderground v.1.15,2013-09-16 01:10:00,
2013-09-15 18:15:00,73.1,45.3,29.57,WSW,257,4.0,8.0,37,0.00,,,0.00,47,Wunderground v.1.15,2013-09-16 01:15:00,
2013-09-15 18:25:00,72.5,45.4,29.58,West,277,2.0,3.0,38,0.00,,,0.00,30,Wunderground v.1.15,2013-09-16 01:25:00,
2013-09-15 18:30:00,72.2,45.9,29.58,West,277,1.0,1.0,39,0.00,,,0.00,39,Wunderground v.1.15,2013-09-16 01:30:00,
2013-09-15 18:35:00,72.0,45.7,29.59,West,274,3.0,3.0,39,0.00,,,0.00,33,Wunderground v.1.15,2013-09-16 01:35:00,
2013-09-15 18:40:00,72.0,45.0,29.59,WNW,288,6.0,10.0,38,0.00,,,0.00,47,Wunderground v.1.15,2013-09-16 01:40:00,
2013-09-15 18:45:00,72.1,45.8,29.59,WSW,247,9.0,10.0,39,0.00,,,0.00,40,Wunderground v.1.15,2013-09-16 01:45:00,
2013-09-15 18:55:00,71.6,45.3,29.60,West,273,4.0,9.0,39,0.00,,,0.00,25,Wunderground v.1.15,2013-09-16 01:55:00,
2013-09-15 19:00:00,71.2,45.6,29.60,WSW,257,4.0,4.0,40,0.00,,,0.00,18,Wunderground v.1.15,2013-09-16 02:00:00,
2013-09-15 19:10:00,70.9,45.4,29.60,WSW,245,4.0,6.0,40,0.00,,,0.00,9,Wunderground v.1.15,2013-09-16 02:10:00,
2013-09-15 19:15:00,70.4,44.9,29.60,SW,232,4.0,6.0,40,0.00,,,0.00,5,Wunderground v.1.15,2013-09-16 02:15:00,
2013-09-15 19:20:00,69.8,45.0,29.60,WNW,282,3.0,4.0,41,0.00,,,0.00,0,Wunderground v.1.15,2013-09-16 02:20:00,
2013-09-15 19:25:00,69.5,43.4,29.61,WSW,247,3.0,4.0,39,0.00,,,0.00,0,Wunderground v.1.15,2013-09-16 02:25:00,
2013-09-15 19:30:00,69.2,43.8,29.61,WSW,248,4.0,4.0,40,0.00,,,0.00,0,Wunderground v.1.15,2013-09-16 02:30:00,
2013-09-15 19:35:00,68.8,44.8,29.61,SW,232,2.0,6.0,42,0.00,,,0.00,0,Wunderground v.1.15,2013-09-16 02:35:00,
2013-09-15 19:45:00,68.6,43.3,29.62,West,278,1.0,2.0,40,0.00,,,0.00,0,Wunderground v.1.15,2013-09-16 02:45:00,
2013-09-15 19:50:00,68.1,43.5,29.63,West,278,0.0,0.0,41,0.00,,,0.00,0,Wunderground v.1.15,2013-09-16 02:50:00,
2013-09-15 19:55:00,67.5,43.0,29.63,West,262,0.0,0.0,41,0.00,,,0.00,0,Wunderground v.1.15,2013-09-16 02:55:00,
2013-09-15 20:00:00,67.1,43.2,29.63,West,262,0.0,0.0,42,0.00,,,0.00,0,Wunderground v.1.15,2013-09-16 03:00:00,
2013-09-15 20:10:00,66.4,45.5,29.64,WNW,286,3.0,8.0,47,0.00,,,0.00,0,Wunderground v.1.15,2013-09-16 03:10:00,
2013-09-15 20:15:00,66.2,45.4,29.64,West,275,8.0,10.0,47,0.00,,,0.00,0,Wunderground v.1.15,2013-09-16 03:15:00,
2013-09-15 20:20:00,65.8,46.1,29.65,West,268,10.0,10.0,49,0.00,,,0.00,0,Wunderground v.1.15,2013-09-16 03:20:00,
2013-09-15 20:30:00,65.2,45.0,29.66,West,280,8.0,8.0,48,0.00,,,0.00,0,Wunderground v.1.15,2013-09-16 03:30:00,
2013-09-15 20:35:00,65.2,46.1,29.66,West,281,4.0,8.0,50,0.00,,,0.00,0,Wunderground v.1.15,2013-09-16 03:35:00,
2013-09-15 20:40:00,64.7,45.6,29.67,West,264,1.0,2.0,50,0.00,,,0.00,0,Wunderground v.1.15,2013-09-16 03:40:00,
2013-09-15 20:45:00,64.4,45.9,29.68,West,275,4.0,8.0,51,0.00,,,0.00,0,Wunderground v.1.15,2013-09-16 03:45:00,
2013-09-15 20:50:00,64.0,46.0,29.68,West,269,7.0,14.0,52,0.00,,,0.00,0,Wunderground v.1.15,2013-09-16 03:50:00,
2013-09-15 21:00:00,63.2,46.8,29.69,West,271,10.0,12.0,55,0.00,,,0.01,0,Wunderground v.1.15,2013-09-16 04:00:00,
2013-09-15 21:05:00,62.8,46.4,29.69,WNW,284,8.0,12.0,55,0.00,,,0.01,0,Wunderground v.1.15,2013-09-16 04:05:00,
2013-09-15 21:10:00,62.6,46.7,29.70,West,280,7.0,7.0,56,0.00,,,0.01,0,Wunderground v.1.15,2013-09-16 04:10:00,
2013-09-15 21:15:00,62.5,46.6,29.70,WNW,292,6.0,7.0,56,0.00,,,0.01,0,Wunderground v.1.15,2013-09-16 04:15:00,
2013-09-15 21:20:00,62.3,46.4,29.70,NW,308,4.0,6.0,56,0.00,,,0.01,0,Wunderground v.1.15,2013-09-16 04:20:00,
2013-09-15 21:25:00,61.9,47.0,29.70,NNW,330,2.0,6.0,58,0.00,,,0.01,0,Wunderground v.1.15,2013-09-16 04:25:00,
2013-09-15 21:30:00,61.3,47.3,29.70,NNW,332,1.0,3.0,60,0.00,,,0.01,0,Wunderground v.1.15,2013-09-16 04:30:00,
2013-09-15 21:35:00,61.1,47.5,29.70,NNW,331,1.0,3.0,61,0.00,,,0.01,0,Wunderground v.1.15,2013-09-16 04:35:00,
2013-09-15 21:45:00,61.3,47.7,29.70,West,281,1.0,1.0,61,0.00,,,0.01,0,Wunderground v.1.15,2013-09-16 04:45:00,
2013-09-15 21:50:00,60.8,48.5,29.70,WSW,250,0.0,0.0,64,0.00,,,0.01,0,Wunderground v.1.15,2013-09-16 04:50:00,
2013-09-15 21:55:00,60.6,48.8,29.70,West,271,2.0,11.0,65,0.00,,,0.01,0,Wunderground v.1.15,2013-09-16 04:55:00,
2013-09-15 22:00:00,60.4,49.0,29.70,WNW,299,2.0,4.0,66,0.00,,,0.01,0,Wunderground v.1.15,2013-09-16 05:00:00,
2013-09-15 22:05:00,60.5,47.8,29.71,West,269,2.0,4.0,63,0.00,,,0.01,0,Wunderground v.1.15,2013-09-16 05:05:00,
2013-09-15 22:10:00,61.3,48.2,29.71,West,268,1.0,1.0,62,0.00,,,0.01,0,Wunderground v.1.15,2013-09-16 05:10:00,
2013-09-15 22:15:00,61.2,48.9,29.71,West,268,0.0,1.0,64,0.00,,,0.01,0,Wunderground v.1.15,2013-09-16 05:15:00,
2013-09-15 22:20:00,60.4,49.0,29.71,WNW,302,0.0,0.0,66,0.00,,,0.01,0,Wunderground v.1.15,2013-09-16 05:20:00,
2013-09-15 22:25:00,59.9,48.9,29.71,NW,325,0.0,0.0,67,0.00,,,0.01,0,Wunderground v.1.15,2013-09-16 05:25:00,
2013-09-15 22:30:00,59.6,49.0,29.71,NW,325,0.0,0.0,68,0.00,,,0.01,0,Wunderground v.1.15,2013-09-16 05:30:00,
2013-09-15 22:40:00,59.3,49.5,29.72,NW,325,0.0,0.0,70,0.00,,,0.01,0,Wunderground v.1.15,2013-09-16 05:40:00,
2013-09-15 22:45:00,59.2,49.4,29.72,NW,325,0.0,0.0,70,0.00,,,0.01,0,Wunderground v.1.15,2013-09-16 05:45:00,
2013-09-15 22:50:00,58.8,49.0,29.72,NW,325,0.0,0.0,70,0.00,,,0.01,0,Wunderground v.1.15,2013-09-16 05:50:00,
2013-09-15 22:55:00,58.5,48.7,29.72,NW,326,0.0,0.0,70,0.00,,,0.01,0,Wunderground v.1.15,2013-09-16 05:55:00,
2013-09-15 23:00:00,58.5,49.1,29.73,NW,326,0.0,0.0,71,0.00,,,0.01,0,Wunderground v.1.15,2013-09-16 06:00:00,
2013-09-15 23:10:00,58.9,48.7,29.73,North,350,0.0,1.0,69,0.00,,,0.01,0,Wunderground v.1.15,2013-09-16 06:10:00,
2013-09-15 23:15:00,59.0,48.4,29.73,NNW,339,0.0,3.0,68,0.00,,,0.01,0,Wunderground v.1.15,2013-09-16 06:15:00,
2013-09-15 23:20:00,59.2,48.2,29.73,NW,308,1.0,1.0,67,0.00,,,0.01,0,Wunderground v.1.15,2013-09-16 06:20:00,
2013-09-15 23:25:00,59.5,48.1,29.73,NNW,334,1.0,3.0,66,0.00,,,0.01,0,Wunderground v.1.15,2013-09-16 06:25:00,
2013-09-15 23:30:00,59.2,48.6,29.73,NNE,17,1.0,1.0,68,0.00,,,0.01,0,Wunderground v.1.15,2013-09-16 06:30:00,
2013-09-15 23:35:00,58.6,48.5,29.73,NNE,28,1.0,1.0,69,0.00,,,0.01,0,Wunderground v.1.15,2013-09-16 06:35:00,
2013-09-15 23:45:00,58.4,48.3,29.73,NNE,28,0.0,2.0,69,0.00,,,0.01,0,Wunderground v.1.15,2013-09-16 06:45:00,
2013-09-15 23:50:00,58.4,48.3,29.74,NNE,24,2.0,3.0,69,0.00,,,0.01,0,Wunderground v.1.15,2013-09-16 06:50:00,
2013-09-15 23:55:00,58.4,48.3,29.74,NE,36,3.0,4.0,69,0.00,,,0.01,0,Wunderground v.1.15,2013-09-16 06:55:00,